Archival Weather

Sydney Intl

Sydney, Australia (YSSY)

Report from: Friday, September 22, 2023 11:00 PM AEST
Current time: Sunday, February 25, 2024 2:52 AM AEDT

Current weather – Weather history – Daily summaries
Weather forecast

Temperature14.0°C (57.2°F)
Dew point9.0°C (48.2°F)
Winds 7 kts (3.6 m/s, 8.1 mph) South-Southeast (150°)
Visibility6.2 mi. (10 km)
Clouds Sky clear
Altimeter30.42 in.Hg (1030 mB)
Relative humidity72 %
Density altitude-518 ft. (-158 m)
Remarks Fully automated report
No clouds detected
Flight conditions Visual Meteorological Conditions
Raw dataYSSY 221300Z AUTO 15007KT 9999 // NCD 14/09 Q1030 RF00.0/000.6
An error has occurred. This application may no longer respond until reloaded. Reload 🗙